Time,TemperatureF,DewpointF,PressureIn,WindDirection,WindDirectionDegrees,WindSpeedMPH,WindSpeedGustMPH,Humidity,HourlyPrecipIn,Conditions,Clouds,dailyrainin,SoftwareType,DateUTC
2013-06-08 00:00:00,80.0,73.2,29.89,NE,45,0.0,0.0,80,0.01,,,0.00,Weather View 32 v70,2013-06-08 04:00:00,
2013-06-08 00:05:00,80.0,70.9,29.89,NE,45,0.0,0.0,74,0.02,,,0.01,Weather View 32 v70,2013-06-08 04:05:00,
2013-06-08 00:08:00,80.0,70.9,29.89,NE,45,0.0,0.0,74,0.02,,,0.01,Weather View 32 v70,2013-06-08 04:08:00,
2013-06-08 00:10:00,80.0,73.2,29.90,NE,45,0.0,0.0,80,0.02,,,0.01,Weather View 32 v70,2013-06-08 04:10:00,
2013-06-08 00:15:00,80.0,70.9,29.90,NE,45,0.0,0.0,74,0.02,,,0.01,Weather View 32 v70,2013-06-08 04:15:00,
2013-06-08 00:20:00,80.0,73.2,29.90,NE,45,0.0,0.0,80,0.02,,,0.01,Weather View 32 v70,2013-06-08 04:20:00,
2013-06-08 00:25:00,80.0,70.9,29.90,NE,45,0.0,0.0,74,0.02,,,0.01,Weather View 32 v70,2013-06-08 04:25:00,
2013-06-08 00:30:00,79.0,72.3,29.90,NE,45,0.0,0.0,80,0.01,,,0.01,Weather View 32 v70,2013-06-08 04:30:00,
2013-06-08 00:35:00,78.0,69.0,29.90,NE,45,0.0,0.0,74,0.01,,,0.01,Weather View 32 v70,2013-06-08 04:35:00,
2013-06-08 00:40:00,78.0,71.3,29.90,NE,45,0.0,0.0,80,0.02,,,0.02,Weather View 32 v70,2013-06-08 04:40:00,
2013-06-08 00:45:00,79.0,70.0,29.90,NE,45,0.0,0.0,74,0.02,,,0.02,Weather View 32 v70,2013-06-08 04:45:00,
2013-06-08 00:50:00,79.0,72.3,29.90,NE,45,0.0,0.0,80,0.02,,,0.02,Weather View 32 v70,2013-06-08 04:50:00,
2013-06-08 00:55:00,78.0,69.0,29.90,NE,45,0.0,0.0,74,0.02,,,0.02,Weather View 32 v70,2013-06-08 04:55:00,
2013-06-08 01:00:00,79.0,72.3,29.90,NE,45,0.0,0.0,80,0.02,,,0.02,Weather View 32 v70,2013-06-08 05:00:00,
2013-06-08 01:05:00,78.0,69.0,29.90,NE,45,0.0,0.0,74,0.02,,,0.03,Weather View 32 v70,2013-06-08 05:05:00,
2013-06-08 01:15:00,77.0,68.0,29.90,NE,45,0.0,0.0,74,0.02,,,0.03,Weather View 32 v70,2013-06-08 05:15:00,
2013-06-08 01:20:00,78.0,71.3,29.91,NE,45,0.0,0.0,80,0.02,,,0.03,Weather View 32 v70,2013-06-08 05:20:00,
2013-06-08 01:25:00,79.0,70.0,29.91,NE,45,0.0,0.0,74,0.02,,,0.03,Weather View 32 v70,2013-06-08 05:25:00,
2013-06-08 01:30:00,77.0,70.3,29.90,NE,45,0.0,0.0,80,0.02,,,0.03,Weather View 32 v70,2013-06-08 05:30:00,
2013-06-08 01:40:00,76.0,69.4,29.92,NE,45,0.0,0.0,80,0.02,,,0.04,Weather View 32 v70,2013-06-08 05:40:00,
2013-06-08 01:45:00,77.0,68.0,29.92,NE,45,0.0,0.0,74,0.02,,,0.04,Weather View 32 v70,2013-06-08 05:45:00,
2013-06-08 01:50:00,76.0,69.4,29.92,NE,45,0.0,0.0,80,0.02,,,0.04,Weather View 32 v70,2013-06-08 05:50:00,
2013-06-08 01:55:00,77.0,68.0,29.92,NE,45,0.0,0.0,74,0.02,,,0.04,Weather View 32 v70,2013-06-08 05:55:00,
2013-06-08 02:00:00,78.0,71.3,29.92,NE,45,0.0,0.0,80,0.03,,,0.05,Weather View 32 v70,2013-06-08 06:00:00,
2013-06-08 02:05:00,78.0,69.0,29.92,NE,45,0.0,0.0,74,0.02,,,0.05,Weather View 32 v70,2013-06-08 06:05:00,
2013-06-08 02:10:00,77.0,70.3,29.92,NE,45,0.0,0.0,80,0.02,,,0.05,Weather View 32 v70,2013-06-08 06:10:00,
2013-06-08 02:20:00,77.0,70.3,29.92,NE,45,0.0,0.0,80,0.02,,,0.05,Weather View 32 v70,2013-06-08 06:20:00,
2013-06-08 02:25:00,78.0,69.0,29.92,NE,45,0.0,0.0,74,0.02,,,0.05,Weather View 32 v70,2013-06-08 06:25:00,
2013-06-08 02:30:00,76.0,69.4,29.92,NE,45,0.0,0.0,80,0.02,,,0.05,Weather View 32 v70,2013-06-08 06:30:00,
2013-06-08 02:35:00,77.0,68.0,29.92,NE,45,0.0,0.0,74,0.01,,,0.05,Weather View 32 v70,2013-06-08 06:35:00,
2013-06-08 02:40:00,77.0,70.3,29.93,North,360,0.0,0.0,80,0.02,,,0.06,Weather View 32 v70,2013-06-08 06:40:00,
2013-06-08 02:45:00,77.0,68.0,29.93,North,360,0.0,0.0,74,0.02,,,0.06,Weather View 32 v70,2013-06-08 06:45:00,
2013-06-08 02:50:00,76.0,69.4,29.93,NE,45,0.0,0.0,80,0.02,,,0.06,Weather View 32 v70,2013-06-08 06:50:00,
2013-06-08 02:55:00,77.0,68.0,29.93,NE,45,0.0,0.0,74,0.02,,,0.06,Weather View 32 v70,2013-06-08 06:55:00,
2013-06-08 03:00:00,77.0,70.3,29.92,NE,45,0.0,0.0,80,0.01,,,0.06,Weather View 32 v70,2013-06-08 07:00:00,
2013-06-08 03:05:00,76.0,67.1,29.92,NE,45,0.0,0.0,74,0.01,,,0.06,Weather View 32 v70,2013-06-08 07:05:00,
2013-06-08 03:10:00,77.0,70.3,29.92,NE,45,0.0,0.0,80,0.01,,,0.06,Weather View 32 v70,2013-06-08 07:10:00,
2013-06-08 03:20:00,77.0,70.3,29.92,NE,45,0.0,0.0,80,0.02,,,0.07,Weather View 32 v70,2013-06-08 07:20:00,
2013-06-08 03:25:00,74.0,64.8,29.92,NE,45,0.0,0.0,73,0.02,,,0.07,Weather View 32 v70,2013-06-08 07:25:00,
2013-06-08 03:35:00,71.0,61.9,29.91,NE,45,0.0,0.0,73,0.02,,,0.07,Weather View 32 v70,2013-06-08 07:35:00,
2013-06-08 03:40:00,70.0,63.2,29.92,NE,45,0.0,0.0,79,0.01,,,0.07,Weather View 32 v70,2013-06-08 07:40:00,
2013-06-08 03:45:00,70.0,60.9,29.92,NE,45,0.0,0.0,73,0.01,,,0.07,Weather View 32 v70,2013-06-08 07:45:00,
2013-06-08 03:50:00,70.0,63.2,29.92,NE,45,0.0,0.0,79,0.01,,,0.07,Weather View 32 v70,2013-06-08 07:50:00,
2013-06-08 03:55:00,70.0,60.9,29.92,NE,45,0.0,0.0,73,0.01,,,0.07,Weather View 32 v70,2013-06-08 07:55:00,
2013-06-08 04:00:00,70.0,63.2,29.92,NE,45,0.0,0.0,79,0.02,,,0.08,Weather View 32 v70,2013-06-08 08:00:00,
2013-06-08 04:05:00,70.0,60.9,29.92,NE,45,0.0,0.0,73,0.02,,,0.08,Weather View 32 v70,2013-06-08 08:05:00,
2013-06-08 04:10:00,70.0,63.2,29.92,NE,45,0.0,0.0,79,0.02,,,0.08,Weather View 32 v70,2013-06-08 08:10:00,
2013-06-08 04:15:00,70.0,60.9,29.92,NE,45,0.0,0.0,73,0.01,,,0.08,Weather View 32 v70,2013-06-08 08:15:00,
2013-06-08 04:25:00,70.0,60.9,29.92,NE,45,0.0,0.0,73,0.01,,,0.08,Weather View 32 v70,2013-06-08 08:25:00,
2013-06-08 04:30:00,70.0,63.2,29.93,NE,45,0.0,0.0,79,0.01,,,0.08,Weather View 32 v70,2013-06-08 08:30:00,
2013-06-08 04:35:00,70.0,60.9,29.93,NE,45,0.0,0.0,73,0.01,,,0.08,Weather View 32 v70,2013-06-08 08:35:00,
2013-06-08 04:40:00,69.0,61.8,29.92,NE,45,0.0,0.0,78,0.02,,,0.09,Weather View 32 v70,2013-06-08 08:40:00,
2013-06-08 04:45:00,70.0,60.9,29.92,NE,45,0.0,0.0,73,0.02,,,0.09,Weather View 32 v70,2013-06-08 08:45:00,
2013-06-08 04:50:00,69.0,61.8,29.93,NE,45,0.0,0.0,78,0.02,,,0.09,Weather View 32 v70,2013-06-08 08:50:00,
2013-06-08 04:55:00,70.0,60.9,29.93,NE,45,0.0,0.0,73,0.02,,,0.09,Weather View 32 v70,2013-06-08 08:55:00,
2013-06-08 05:00:00,69.0,61.8,29.94,NE,45,0.0,0.0,78,0.01,,,0.09,Weather View 32 v70,2013-06-08 09:00:00,
2013-06-08 05:05:00,70.0,60.9,29.94,NE,45,0.0,0.0,73,0.01,,,0.09,Weather View 32 v70,2013-06-08 09:05:00,
2013-06-08 05:10:00,69.0,61.8,29.94,NE,45,0.0,0.0,78,0.01,,,0.09,Weather View 32 v70,2013-06-08 09:10:00,
2013-06-08 05:15:00,70.0,60.9,29.94,NE,45,0.0,0.0,73,0.01,,,0.09,Weather View 32 v70,2013-06-08 09:15:00,
2013-06-08 05:20:00,69.0,61.8,29.94,NE,45,0.0,0.0,78,0.01,,,0.09,Weather View 32 v70,2013-06-08 09:20:00,
2013-06-08 05:25:00,70.0,60.9,29.94,NE,45,0.0,0.0,73,0.01,,,0.09,Weather View 32 v70,2013-06-08 09:25:00,
2013-06-08 05:30:00,69.0,61.8,29.94,NE,45,0.0,0.0,78,0.01,,,0.09,Weather View 32 v70,2013-06-08 09:30:00,
2013-06-08 05:40:00,69.0,61.8,29.94,NE,45,0.0,0.0,78,0.01,,,0.10,Weather View 32 v70,2013-06-08 09:40:00,
2013-06-08 05:45:00,69.0,60.0,29.94,NE,45,0.0,0.0,73,0.01,,,0.10,Weather View 32 v70,2013-06-08 09:45:00,
2013-06-08 05:50:00,69.0,61.8,29.95,NE,45,0.0,0.0,78,0.01,,,0.10,Weather View 32 v70,2013-06-08 09:50:00,
2013-06-08 05:55:00,69.0,60.0,29.95,NE,45,0.0,0.0,73,0.01,,,0.10,Weather View 32 v70,2013-06-08 09:55:00,
2013-06-08 06:00:00,69.0,61.8,29.96,NE,45,0.0,0.0,78,0.01,,,0.10,Weather View 32 v70,2013-06-08 10:00:00,
2013-06-08 06:05:00,69.0,60.0,29.96,NE,45,0.0,0.0,73,0.01,,,0.10,Weather View 32 v70,2013-06-08 10:05:00,
2013-06-08 06:10:00,69.0,61.8,29.96,NE,45,0.0,0.0,78,0.01,,,0.10,Weather View 32 v70,2013-06-08 10:10:00,
2013-06-08 06:15:00,69.0,60.0,29.96,NE,45,0.0,0.0,73,0.01,,,0.10,Weather View 32 v70,2013-06-08 10:15:00,
2013-06-08 06:20:00,69.0,61.8,29.97,NE,45,0.0,0.0,78,0.01,,,0.10,Weather View 32 v70,2013-06-08 10:20:00,
2013-06-08 06:25:00,69.0,60.0,29.97,NE,45,0.0,0.0,73,0.01,,,0.10,Weather View 32 v70,2013-06-08 10:25:00,
2013-06-08 06:30:00,69.0,61.8,29.97,NE,45,0.0,0.0,78,0.02,,,0.11,Weather View 32 v70,2013-06-08 10:30:00,
2013-06-08 06:35:00,69.0,60.0,29.97,NE,45,0.0,0.0,73,0.01,,,0.11,Weather View 32 v70,2013-06-08 10:35:00,
2013-06-08 06:40:00,69.0,61.8,29.96,NE,45,0.0,0.0,78,0.01,,,0.11,Weather View 32 v70,2013-06-08 10:40:00,
2013-06-08 06:50:00,69.0,61.8,29.97,NE,45,0.0,0.0,78,0.01,,,0.11,Weather View 32 v70,2013-06-08 10:50:00,
2013-06-08 06:55:00,70.0,60.9,29.97,NE,45,0.0,0.0,73,0.01,,,0.11,Weather View 32 v70,2013-06-08 10:55:00,
2013-06-08 07:00:00,69.0,61.8,29.98,NE,45,0.0,0.0,78,0.01,,,0.11,Weather View 32 v70,2013-06-08 11:00:00,
2013-06-08 07:05:00,70.0,60.9,29.98,NE,45,0.0,0.0,73,0.01,,,0.11,Weather View 32 v70,2013-06-08 11:05:00,
2013-06-08 07:10:00,69.0,61.8,29.98,NE,45,0.0,0.0,78,0.01,,,0.11,Weather View 32 v70,2013-06-08 11:10:00,
2013-06-08 07:15:00,70.0,60.9,29.98,NE,45,0.0,0.0,73,0.01,,,0.11,Weather View 32 v70,2013-06-08 11:15:00,
2013-06-08 07:20:00,70.0,62.8,29.97,NE,45,0.0,0.0,78,0.01,,,0.11,Weather View 32 v70,2013-06-08 11:20:00,
2013-06-08 07:25:00,70.0,60.9,29.97,NE,45,0.0,0.0,73,0.01,,,0.11,Weather View 32 v70,2013-06-08 11:25:00,
2013-06-08 07:30:00,70.0,62.8,29.97,NE,45,0.0,0.0,78,0.00,,,0.11,Weather View 32 v70,2013-06-08 11:30:00,
2013-06-08 07:35:00,70.0,60.9,29.97,NE,45,0.0,0.0,73,0.00,,,0.11,Weather View 32 v70,2013-06-08 11:35:00,
2013-06-08 07:40:00,70.0,62.8,29.97,NE,45,0.0,0.0,78,0.00,,,0.11,Weather View 32 v70,2013-06-08 11:40:00,
2013-06-08 07:45:00,70.0,60.9,29.97,NE,45,0.0,0.0,73,0.01,,,0.12,Weather View 32 v70,2013-06-08 11:45:00,
2013-06-08 07:50:00,70.0,62.8,29.98,NE,45,0.0,0.0,78,0.01,,,0.12,Weather View 32 v70,2013-06-08 11:50:00,
2013-06-08 08:00:00,70.0,62.8,29.97,NE,45,0.0,0.0,78,0.01,,,0.12,Weather View 32 v70,2013-06-08 12:00:00,
2013-06-08 08:10:00,70.0,62.8,29.98,NE,45,0.0,0.0,78,0.01,,,0.12,Weather View 32 v70,2013-06-08 12:10:00,
2013-06-08 08:15:00,71.0,61.9,29.98,NE,45,0.0,0.0,73,0.01,,,0.12,Weather View 32 v70,2013-06-08 12:15:00,
2013-06-08 08:20:00,70.0,62.8,29.98,NE,45,0.0,0.0,78,0.01,,,0.12,Weather View 32 v70,2013-06-08 12:20:00,
2013-06-08 08:25:00,71.0,61.9,29.98,NE,45,0.0,0.0,73,0.01,,,0.12,Weather View 32 v70,2013-06-08 12:25:00,
2013-06-08 08:30:00,71.0,63.8,29.99,NE,45,0.0,0.0,78,0.01,,,0.12,Weather View 32 v70,2013-06-08 12:30:00,
2013-06-08 08:35:00,71.0,61.9,29.99,NE,45,0.0,0.0,73,0.01,,,0.12,Weather View 32 v70,2013-06-08 12:35:00,
2013-06-08 08:40:00,71.0,63.8,29.99,NE,45,0.0,0.0,78,0.01,,,0.12,Weather View 32 v70,2013-06-08 12:40:00,
2013-06-08 08:45:00,71.0,61.9,29.99,NE,45,0.0,0.0,73,0.00,,,0.12,Weather View 32 v70,2013-06-08 12:45:00,
2013-06-08 08:50:00,71.0,63.8,30.00,NE,45,0.0,0.0,78,0.00,,,0.12,Weather View 32 v70,2013-06-08 12:50:00,
2013-06-08 08:55:00,71.0,61.9,30.00,NE,45,0.0,0.0,73,0.00,,,0.12,Weather View 32 v70,2013-06-08 12:55:00,
2013-06-08 09:00:00,71.0,63.8,30.00,NE,45,0.0,0.0,78,0.01,,,0.13,Weather View 32 v70,2013-06-08 13:00:00,
2013-06-08 09:05:00,71.0,61.9,30.00,NE,45,0.0,0.0,73,0.01,,,0.13,Weather View 32 v70,2013-06-08 13:05:00,
2013-06-08 09:10:00,71.0,63.8,30.01,NE,45,0.0,0.0,78,0.01,,,0.13,Weather View 32 v70,2013-06-08 13:10:00,
2013-06-08 09:15:00,71.0,61.9,30.01,NE,45,0.0,0.0,73,0.01,,,0.13,Weather View 32 v70,2013-06-08 13:15:00,
2013-06-08 09:25:00,72.0,62.8,30.01,NE,45,0.0,0.0,73,0.01,,,0.13,Weather View 32 v70,2013-06-08 13:25:00,
2013-06-08 09:30:00,71.0,63.8,30.01,East,90,0.0,0.0,78,0.01,,,0.13,Weather View 32 v70,2013-06-08 13:30:00,
2013-06-08 09:35:00,72.0,62.8,30.01,East,90,0.0,0.0,73,0.01,,,0.13,Weather View 32 v70,2013-06-08 13:35:00,
2013-06-08 09:40:00,71.0,63.8,30.02,East,90,0.0,0.0,78,0.01,,,0.13,Weather View 32 v70,2013-06-08 13:40:00,
2013-06-08 09:45:00,72.0,62.8,30.02,NE,45,0.0,3.0,73,0.01,,,0.13,Weather View 32 v70,2013-06-08 13:45:00,
2013-06-08 09:50:00,71.0,63.8,30.03,NE,45,0.0,3.0,78,0.01,,,0.13,Weather View 32 v70,2013-06-08 13:50:00,
2013-06-08 09:55:00,72.0,62.8,30.03,NE,45,0.0,3.0,73,0.01,,,0.13,Weather View 32 v70,2013-06-08 13:55:00,
2013-06-08 10:00:00,71.0,63.8,30.02,South,180,0.0,3.0,78,0.00,,,0.13,Weather View 32 v70,2013-06-08 14:00:00,
2013-06-08 10:05:00,72.0,62.8,30.02,South,180,0.0,3.0,73,0.00,,,0.13,Weather View 32 v70,2013-06-08 14:05:00,
2013-06-08 10:10:00,71.0,63.8,30.03,South,180,0.0,3.0,78,0.00,,,0.13,Weather View 32 v70,2013-06-08 14:10:00,
2013-06-08 10:15:00,72.0,62.4,30.03,North,360,0.0,3.0,72,0.00,,,0.13,Weather View 32 v70,2013-06-08 14:15:00,
2013-06-08 10:20:00,71.0,63.8,30.03,North,360,0.0,3.0,78,0.00,,,0.13,Weather View 32 v70,2013-06-08 14:20:00,
2013-06-08 10:25:00,72.0,62.8,30.03,East,90,0.0,3.0,73,0.00,,,0.13,Weather View 32 v70,2013-06-08 14:25:00,
2013-06-08 10:35:00,71.0,61.9,30.04,NW,315,0.0,4.0,73,0.00,,,0.13,Weather View 32 v70,2013-06-08 14:35:00,
2013-06-08 10:40:00,70.0,63.2,30.05,NW,315,0.0,4.0,79,0.00,,,0.13,Weather View 32 v70,2013-06-08 14:40:00,
2013-06-08 10:45:00,70.0,61.3,30.05,SE,135,0.0,4.0,74,0.01,,,0.14,Weather View 32 v70,2013-06-08 14:45:00,
2013-06-08 10:50:00,69.0,61.8,30.06,SE,135,0.0,4.0,78,0.01,,,0.14,Weather View 32 v70,2013-06-08 14:50:00,
2013-06-08 10:55:00,70.0,60.9,30.06,SE,135,0.0,4.0,73,0.01,,,0.14,Weather View 32 v70,2013-06-08 14:55:00,
2013-06-08 11:00:00,70.0,63.2,30.05,SE,135,0.0,4.0,79,0.01,,,0.14,Weather View 32 v70,2013-06-08 15:00:00,
2013-06-08 11:05:00,71.0,61.9,30.05,SE,135,0.0,4.0,73,0.01,,,0.14,Weather View 32 v70,2013-06-08 15:05:00,
2013-06-08 11:10:00,71.0,63.8,30.05,West,270,0.0,4.0,78,0.01,,,0.14,Weather View 32 v70,2013-06-08 15:10:00,
2013-06-08 11:15:00,72.0,64.7,30.05,WNW,292,0.0,4.0,78,0.01,,,0.14,Weather View 32 v70,2013-06-08 15:15:00,
2013-06-08 11:20:00,72.0,65.5,30.04,SSE,157,0.0,4.0,80,0.01,,,0.14,Weather View 32 v70,2013-06-08 15:20:00,
2013-06-08 11:25:00,73.0,66.4,30.04,SE,135,0.0,4.0,80,0.01,,,0.14,Weather View 32 v70,2013-06-08 15:25:00,
2013-06-08 11:30:00,74.0,67.4,30.04,SW,225,0.0,4.0,80,0.01,,,0.14,Weather View 32 v70,2013-06-08 15:30:00,
2013-06-08 11:35:00,76.0,69.7,30.04,South,180,0.0,4.0,81,0.01,,,0.14,Weather View 32 v70,2013-06-08 15:35:00,
2013-06-08 11:45:00,77.0,70.7,30.04,SE,135,0.0,0.0,81,0.00,,,0.14,Weather View 32 v70,2013-06-08 15:45:00,
2013-06-08 11:50:00,78.0,72.0,30.03,SE,135,0.0,0.0,82,0.00,,,0.14,Weather View 32 v70,2013-06-08 15:50:00,
2013-06-08 11:55:00,79.0,72.6,30.03,North,360,0.0,0.0,81,0.00,,,0.14,Weather View 32 v70,2013-06-08 15:55:00,
2013-06-08 12:00:00,79.0,73.0,30.03,NW,315,0.0,0.0,82,0.00,,,0.14,Weather View 32 v70,2013-06-08 16:00:00,
2013-06-08 12:05:00,80.0,73.6,30.03,SE,135,0.0,0.0,81,0.01,,,0.15,Weather View 32 v70,2013-06-08 16:05:00,
2013-06-08 12:10:00,81.0,75.0,30.02,SE,135,0.0,0.0,82,0.01,,,0.15,Weather View 32 v70,2013-06-08 16:10:00,
2013-06-08 12:15:00,82.0,75.6,30.02,East,90,0.0,0.0,81,0.01,,,0.15,Weather View 32 v70,2013-06-08 16:15:00,
2013-06-08 12:25:00,83.0,76.5,30.02,North,360,0.0,0.0,81,0.01,,,0.15,Weather View 32 v70,2013-06-08 16:25:00,
2013-06-08 12:30:00,84.0,78.3,30.02,SE,135,0.0,0.0,83,0.01,,,0.15,Weather View 32 v70,2013-06-08 16:30:00,
2013-06-08 12:35:00,84.0,77.9,30.02,East,90,0.0,0.0,82,0.01,,,0.15,Weather View 32 v70,2013-06-08 16:35:00,
2013-06-08 12:40:00,84.0,78.3,30.01,East,90,0.0,0.0,83,0.01,,,0.15,Weather View 32 v70,2013-06-08 16:40:00,
2013-06-08 12:50:00,85.0,79.2,30.01,North,360,0.0,3.0,83,0.01,,,0.15,Weather View 32 v70,2013-06-08 16:50:00,
2013-06-08 13:05:00,85.0,79.2,30.00,NW,315,0.0,3.0,83,0.01,,,0.16,Weather View 32 v70,2013-06-08 17:05:00,
2013-06-08 13:10:00,84.0,78.3,30.01,North,360,0.0,3.0,83,0.01,,,0.16,Weather View 32 v70,2013-06-08 17:10:00,
2013-06-08 13:15:00,84.0,77.9,30.01,East,90,0.0,3.0,82,0.01,,,0.16,Weather View 32 v70,2013-06-08 17:15:00,
2013-06-08 13:20:00,84.0,78.3,30.01,NE,45,0.0,3.0,83,0.01,,,0.16,Weather View 32 v70,2013-06-08 17:20:00,
2013-06-08 13:25:00,84.0,77.9,30.01,North,360,0.0,3.0,82,0.01,,,0.16,Weather View 32 v70,2013-06-08 17:25:00,
2013-06-08 13:30:00,84.0,78.3,30.01,NE,45,0.0,3.0,83,0.01,,,0.16,Weather View 32 v70,2013-06-08 17:30:00,
2013-06-08 13:35:00,84.0,77.9,30.01,NE,45,0.0,3.0,82,0.01,,,0.16,Weather View 32 v70,2013-06-08 17:35:00,
2013-06-08 13:40:00,84.0,78.3,30.00,NW,315,0.0,3.0,83,0.01,,,0.16,Weather View 32 v70,2013-06-08 17:40:00,
2013-06-08 13:50:00,85.0,79.2,30.00,NE,45,0.0,3.0,83,0.02,,,0.17,Weather View 32 v70,2013-06-08 17:50:00,
2013-06-08 13:55:00,85.0,79.2,30.00,South,180,0.0,3.0,83,0.02,,,0.17,Weather View 32 v70,2013-06-08 17:55:00,
2013-06-08 14:00:00,86.0,80.2,29.99,NE,45,0.0,3.0,83,0.17,,,0.17,Weather View 32 v70,2013-06-08 18:00:00,
2013-06-08 14:05:00,86.0,80.2,29.99,NW,315,0.0,3.0,83,0.01,,,0.17,Weather View 32 v70,2013-06-08 18:05:00,
2013-06-08 14:10:00,87.0,81.2,29.99,North,360,0.0,3.0,83,0.01,,,0.17,Weather View 32 v70,2013-06-08 18:10:00,
2013-06-08 14:15:00,87.0,81.2,29.99,East,90,0.0,3.0,83,0.01,,,0.17,Weather View 32 v70,2013-06-08 18:15:00,
2013-06-08 14:20:00,87.0,81.2,29.98,NE,45,0.0,3.0,83,0.01,,,0.17,Weather View 32 v70,2013-06-08 18:20:00,
2013-06-08 14:25:00,88.0,82.2,29.98,East,90,0.0,5.0,83,0.01,,,0.17,Weather View 32 v70,2013-06-08 18:25:00,
2013-06-08 14:30:00,88.0,82.2,29.98,NNE,22,0.0,5.0,83,0.01,,,0.17,Weather View 32 v70,2013-06-08 18:30:00,
2013-06-08 14:35:00,88.0,82.2,29.98,East,90,0.0,5.0,83,0.01,,,0.17,Weather View 32 v70,2013-06-08 18:35:00,
2013-06-08 14:40:00,88.0,82.2,29.98,East,90,0.0,5.0,83,0.02,,,0.18,Weather View 32 v70,2013-06-08 18:40:00,
2013-06-08 14:45:00,89.0,83.1,29.98,East,90,0.0,5.0,83,0.02,,,0.18,Weather View 32 v70,2013-06-08 18:45:00,
2013-06-08 14:50:00,89.0,83.1,29.98,East,90,0.0,5.0,83,0.01,,,0.18,Weather View 32 v70,2013-06-08 18:50:00,
2013-06-08 14:55:00,89.0,83.1,29.98,East,90,0.0,5.0,83,0.01,,,0.18,Weather View 32 v70,2013-06-08 18:55:00,
2013-06-08 15:05:00,89.0,83.1,29.98,NE,45,0.0,5.0,83,0.01,,,0.18,Weather View 32 v70,2013-06-08 19:05:00,
2013-06-08 15:15:00,89.0,83.1,29.98,SE,135,0.0,6.0,83,0.02,,,0.19,Weather View 32 v70,2013-06-08 19:15:00,
2013-06-08 15:20:00,89.0,83.1,29.98,West,270,0.0,6.0,83,0.02,,,0.19,Weather View 32 v70,2013-06-08 19:20:00,
2013-06-08 15:25:00,89.0,83.1,29.98,West,270,0.0,6.0,83,0.02,,,0.19,Weather View 32 v70,2013-06-08 19:25:00,
2013-06-08 15:30:00,89.0,83.1,29.98,NE,45,0.0,6.0,83,0.02,,,0.19,Weather View 32 v70,2013-06-08 19:30:00,
2013-06-08 15:35:00,89.0,83.1,29.98,NW,315,0.0,6.0,83,0.02,,,0.19,Weather View 32 v70,2013-06-08 19:35:00,
2013-06-08 15:40:00,89.0,83.1,29.98,North,360,0.0,6.0,83,0.01,,,0.19,Weather View 32 v70,2013-06-08 19:40:00,
2013-06-08 15:45:00,89.0,83.1,29.98,North,360,0.0,6.0,83,0.01,,,0.19,Weather View 32 v70,2013-06-08 19:45:00,
2013-06-08 15:50:00,89.0,83.1,29.98,NW,315,0.0,6.0,83,0.01,,,0.19,Weather View 32 v70,2013-06-08 19:50:00,
2013-06-08 16:00:00,89.0,83.1,29.98,NE,45,0.0,6.0,83,0.02,,,0.20,Weather View 32 v70,2013-06-08 20:00:00,
2013-06-08 16:05:00,89.0,83.1,29.98,NW,315,0.0,6.0,83,0.02,,,0.20,Weather View 32 v70,2013-06-08 20:05:00,
2013-06-08 16:10:00,89.0,83.1,29.99,West,270,0.0,3.0,83,0.02,,,0.20,Weather View 32 v70,2013-06-08 20:10:00,
2013-06-08 16:15:00,89.0,83.1,29.99,East,90,0.0,4.0,83,0.01,,,0.20,Weather View 32 v70,2013-06-08 20:15:00,
2013-06-08 16:20:00,89.0,83.1,29.99,East,90,0.0,4.0,83,0.01,,,0.20,Weather View 32 v70,2013-06-08 20:20:00,
2013-06-08 16:25:00,89.0,83.1,29.99,NW,315,0.0,4.0,83,0.01,,,0.20,Weather View 32 v70,2013-06-08 20:25:00,
2013-06-08 16:30:00,88.0,82.2,30.00,NW,315,0.0,4.0,83,0.02,,,0.21,Weather View 32 v70,2013-06-08 20:30:00,
2013-06-08 16:35:00,88.0,82.2,30.00,NE,45,0.0,4.0,83,0.02,,,0.21,Weather View 32 v70,2013-06-08 20:35:00,
2013-06-08 16:40:00,88.0,82.2,30.00,NW,315,0.0,4.0,83,0.02,,,0.21,Weather View 32 v70,2013-06-08 20:40:00,
2013-06-08 16:45:00,88.0,82.2,30.00,NE,45,0.0,4.0,83,0.02,,,0.21,Weather View 32 v70,2013-06-08 20:45:00,
2013-06-08 16:50:00,88.0,82.2,30.00,NE,45,0.0,4.0,83,0.02,,,0.21,Weather View 32 v70,2013-06-08 20:50:00,
2013-06-08 16:55:00,88.0,82.2,30.00,NE,45,0.0,4.0,83,0.01,,,0.21,Weather View 32 v70,2013-06-08 20:55:00,
2013-06-08 17:00:00,88.0,82.2,30.01,NE,45,0.0,4.0,83,0.01,,,0.21,Weather View 32 v70,2013-06-08 21:00:00,
2013-06-08 17:07:00,87.0,81.2,30.01,NE,45,0.0,4.0,83,0.01,,,0.21,Weather View 32 v70,2013-06-08 21:07:00,
2013-06-08 17:15:00,86.0,80.2,30.01,NE,45,0.0,0.0,83,0.01,,,0.21,Weather View 32 v70,2013-06-08 21:15:00,
2013-06-08 17:20:00,86.0,80.2,30.02,NE,45,0.0,0.0,83,0.01,,,0.21,Weather View 32 v70,2013-06-08 21:20:00,
2013-06-08 17:25:00,85.0,79.2,30.02,SE,135,0.0,0.0,83,0.02,,,0.22,Weather View 32 v70,2013-06-08 21:25:00,
2013-06-08 17:30:00,85.0,79.2,30.01,NE,45,0.0,0.0,83,0.01,,,0.22,Weather View 32 v70,2013-06-08 21:30:00,
2013-06-08 17:35:00,84.0,78.3,30.01,NE,45,0.0,0.0,83,0.01,,,0.22,Weather View 32 v70,2013-06-08 21:35:00,
2013-06-08 17:40:00,84.0,78.3,30.02,NW,315,0.0,0.0,83,0.01,,,0.22,Weather View 32 v70,2013-06-08 21:40:00,
2013-06-08 17:45:00,84.0,78.3,30.02,NNE,22,0.0,0.0,83,0.01,,,0.22,Weather View 32 v70,2013-06-08 21:45:00,
2013-06-08 17:50:00,84.0,78.3,30.02,NNE,22,0.0,0.0,83,0.01,,,0.22,Weather View 32 v70,2013-06-08 21:50:00,
2013-06-08 17:55:00,83.0,76.9,30.02,NNE,22,0.0,0.0,82,0.01,,,0.22,Weather View 32 v70,2013-06-08 21:55:00,
2013-06-08 18:00:00,83.0,76.9,30.03,NNE,22,0.0,0.0,82,0.01,,,0.22,Weather View 32 v70,2013-06-08 22:00:00,
2013-06-08 18:05:00,83.0,76.9,30.03,NNE,22,0.0,0.0,82,0.01,,,0.22,Weather View 32 v70,2013-06-08 22:05:00,
2013-06-08 18:10:00,82.0,75.9,30.03,NNE,22,0.0,0.0,82,0.01,,,0.22,Weather View 32 v70,2013-06-08 22:10:00,
2013-06-08 18:20:00,82.0,75.9,30.03,West,270,0.0,0.0,82,0.02,,,0.23,Weather View 32 v70,2013-06-08 22:20:00,
2013-06-08 18:25:00,82.0,75.9,30.03,West,270,0.0,0.0,82,0.01,,,0.23,Weather View 32 v70,2013-06-08 22:25:00,
2013-06-08 18:30:00,81.0,75.0,30.04,West,270,0.0,0.0,82,0.01,,,0.23,Weather View 32 v70,2013-06-08 22:30:00,
2013-06-08 18:40:00,81.0,75.0,30.04,West,270,0.0,0.0,82,0.01,,,0.23,Weather View 32 v70,2013-06-08 22:40:00,
2013-06-08 18:45:00,81.0,75.0,30.04,NW,315,0.0,0.0,82,0.01,,,0.23,Weather View 32 v70,2013-06-08 22:45:00,
2013-06-08 18:50:00,81.0,75.0,30.05,NW,315,0.0,0.0,82,0.01,,,0.23,Weather View 32 v70,2013-06-08 22:50:00,
2013-06-08 18:55:00,80.0,73.6,30.05,NW,315,0.0,0.0,81,0.01,,,0.23,Weather View 32 v70,2013-06-08 22:55:00,
2013-06-08 19:00:00,80.0,74.0,30.06,NW,315,0.0,0.0,82,0.01,,,0.23,Weather View 32 v70,2013-06-08 23:00:00,
2013-06-08 19:05:00,80.0,73.6,30.06,NW,315,0.0,0.0,81,0.01,,,0.23,Weather View 32 v70,2013-06-08 23:05:00,
2013-06-08 19:10:00,80.0,74.0,30.06,NW,315,0.0,0.0,82,0.01,,,0.23,Weather View 32 v70,2013-06-08 23:10:00,
2013-06-08 19:15:00,79.0,72.6,30.06,NW,315,0.0,0.0,81,0.00,,,0.23,Weather View 32 v70,2013-06-08 23:15:00,
2013-06-08 19:20:00,79.0,73.0,30.07,NW,315,0.0,0.0,82,0.00,,,0.23,Weather View 32 v70,2013-06-08 23:20:00,
2013-06-08 19:25:00,79.0,72.6,30.07,NW,315,0.0,0.0,81,0.00,,,0.23,Weather View 32 v70,2013-06-08 23:25:00,
2013-06-08 19:30:00,79.0,72.6,30.07,NW,315,0.0,0.0,81,0.00,,,0.23,Weather View 32 v70,2013-06-08 23:30:00,
2013-06-08 19:40:00,78.0,71.7,30.08,NW,315,0.0,0.0,81,0.00,,,0.23,Weather View 32 v70,2013-06-08 23:40:00,
2013-06-08 19:45:00,78.0,71.7,30.08,NW,315,0.0,0.0,81,0.00,,,0.23,Weather View 32 v70,2013-06-08 23:45:00,
2013-06-08 19:50:00,77.0,70.7,30.08,NW,315,0.0,0.0,81,0.00,,,0.23,Weather View 32 v70,2013-06-08 23:50:00,
2013-06-08 19:55:00,77.0,70.7,30.08,NW,315,0.0,0.0,81,0.00,,,0.23,Weather View 32 v70,2013-06-08 23:55:00,
2013-06-08 20:00:00,77.0,70.7,30.08,NW,315,0.0,0.0,81,0.00,,,0.23,Weather View 32 v70,2013-06-09 00:00:00,
2013-06-08 20:05:00,77.0,70.7,30.08,NW,315,0.0,0.0,81,0.01,,,0.24,Weather View 32 v70,2013-06-09 00:05:00,
2013-06-08 20:10:00,76.0,69.7,30.09,NW,315,0.0,0.0,81,0.01,,,0.24,Weather View 32 v70,2013-06-09 00:10:00,
2013-06-08 20:15:00,76.0,69.7,30.09,NW,315,0.0,0.0,81,0.01,,,0.24,Weather View 32 v70,2013-06-09 00:15:00,
2013-06-08 20:20:00,76.0,69.7,30.10,NW,315,0.0,0.0,81,0.01,,,0.24,Weather View 32 v70,2013-06-09 00:20:00,
2013-06-08 20:25:00,75.0,68.4,30.10,NW,315,0.0,0.0,80,0.01,,,0.24,Weather View 32 v70,2013-06-09 00:25:00,
2013-06-08 20:30:00,75.0,68.4,30.10,NW,315,0.0,0.0,80,0.01,,,0.24,Weather View 32 v70,2013-06-09 00:30:00,
2013-06-08 20:35:00,75.0,68.4,30.10,NW,315,0.0,0.0,80,0.01,,,0.24,Weather View 32 v70,2013-06-09 00:35:00,
2013-06-08 20:40:00,75.0,68.4,30.11,NW,315,0.0,0.0,80,0.01,,,0.24,Weather View 32 v70,2013-06-09 00:40:00,
2013-06-08 20:45:00,74.0,67.4,30.11,NW,315,0.0,0.0,80,0.01,,,0.24,Weather View 32 v70,2013-06-09 00:45:00,
2013-06-08 20:50:00,74.0,67.4,30.12,NW,315,0.0,0.0,80,0.01,,,0.24,Weather View 32 v70,2013-06-09 00:50:00,
2013-06-08 21:00:00,73.0,66.4,30.12,NW,315,0.0,0.0,80,0.01,,,0.24,Weather View 32 v70,2013-06-09 01:00:00,
2013-06-08 21:05:00,73.0,66.4,30.12,NW,315,0.0,0.0,80,0.00,,,0.24,Weather View 32 v70,2013-06-09 01:05:00,
2013-06-08 21:10:00,73.0,66.4,30.12,NW,315,0.0,0.0,80,0.00,,,0.24,Weather View 32 v70,2013-06-09 01:10:00,
2013-06-08 21:15:00,73.0,66.4,30.12,NW,315,0.0,0.0,80,0.00,,,0.24,Weather View 32 v70,2013-06-09 01:15:00,
2013-06-08 21:20:00,73.0,66.4,30.13,NW,315,0.0,0.0,80,0.00,,,0.24,Weather View 32 v70,2013-06-09 01:20:00,
2013-06-08 21:25:00,72.0,65.5,30.13,NW,315,0.0,0.0,80,0.00,,,0.24,Weather View 32 v70,2013-06-09 01:25:00,
2013-06-08 21:30:00,72.0,65.5,30.13,NW,315,0.0,0.0,80,0.00,,,0.24,Weather View 32 v70,2013-06-09 01:30:00,
2013-06-08 21:35:00,72.0,65.1,30.13,NW,315,0.0,0.0,79,0.00,,,0.24,Weather View 32 v70,2013-06-09 01:35:00,
2013-06-08 21:40:00,72.0,65.5,30.14,NW,315,0.0,0.0,80,0.00,,,0.24,Weather View 32 v70,2013-06-09 01:40:00,
2013-06-08 21:45:00,72.0,65.1,30.14,NW,315,0.0,0.0,79,0.00,,,0.24,Weather View 32 v70,2013-06-09 01:45:00,
2013-06-08 21:50:00,72.0,65.5,30.14,NW,315,0.0,0.0,80,0.00,,,0.24,Weather View 32 v70,2013-06-09 01:50:00,
2013-06-08 21:55:00,72.0,65.1,30.14,NW,315,0.0,0.0,79,0.00,,,0.24,Weather View 32 v70,2013-06-09 01:55:00,
2013-06-08 22:05:00,71.0,64.1,30.15,NW,315,0.0,0.0,79,0.00,,,0.24,Weather View 32 v70,2013-06-09 02:05:00,
2013-06-08 22:10:00,71.0,64.5,30.15,NW,315,0.0,0.0,80,0.00,,,0.24,Weather View 32 v70,2013-06-09 02:10:00,
2013-06-08 22:15:00,71.0,64.1,30.15,NW,315,0.0,0.0,79,0.00,,,0.24,Weather View 32 v70,2013-06-09 02:15:00,
2013-06-08 22:20:00,71.0,64.5,30.16,NW,315,0.0,0.0,80,0.00,,,0.24,Weather View 32 v70,2013-06-09 02:20:00,
2013-06-08 22:25:00,71.0,64.1,30.16,NW,315,0.0,0.0,79,0.00,,,0.24,Weather View 32 v70,2013-06-09 02:25:00,
2013-06-08 22:30:00,71.0,64.5,30.16,NW,315,0.0,0.0,80,0.00,,,0.24,Weather View 32 v70,2013-06-09 02:30:00,
2013-06-08 22:35:00,71.0,63.8,30.16,NW,315,0.0,0.0,78,0.00,,,0.24,Weather View 32 v70,2013-06-09 02:35:00,
2013-06-08 22:40:00,71.0,64.5,30.16,NW,315,0.0,0.0,80,0.00,,,0.24,Weather View 32 v70,2013-06-09 02:40:00,
2013-06-08 22:45:00,71.0,63.8,30.16,NW,315,0.0,0.0,78,0.00,,,0.24,Weather View 32 v70,2013-06-09 02:45:00,
2013-06-08 22:50:00,71.0,64.5,30.16,NW,315,0.0,0.0,80,0.00,,,0.24,Weather View 32 v70,2013-06-09 02:50:00,
2013-06-08 22:55:00,71.0,63.8,30.16,NW,315,0.0,0.0,78,0.01,,,0.25,Weather View 32 v70,2013-06-09 02:55:00,
2013-06-08 23:00:00,70.0,63.5,30.17,NW,315,0.0,0.0,80,0.01,,,0.25,Weather View 32 v70,2013-06-09 03:00:00,
2013-06-08 23:05:00,70.0,62.8,30.17,NW,315,0.0,0.0,78,0.01,,,0.25,Weather View 32 v70,2013-06-09 03:05:00,
2013-06-08 23:10:00,70.0,63.5,30.17,NW,315,0.0,0.0,80,0.01,,,0.25,Weather View 32 v70,2013-06-09 03:10:00,
2013-06-08 23:20:00,70.0,63.5,30.17,NW,315,0.0,0.0,80,0.01,,,0.25,Weather View 32 v70,2013-06-09 03:20:00,
2013-06-08 23:30:00,70.0,63.5,30.17,NW,315,0.0,0.0,80,0.01,,,0.25,Weather View 32 v70,2013-06-09 03:30:00,
2013-06-08 23:35:00,70.0,62.8,30.17,NW,315,0.0,0.0,78,0.01,,,0.25,Weather View 32 v70,2013-06-09 03:35:00,
2013-06-08 23:40:00,70.0,63.5,30.17,NW,315,0.0,0.0,80,0.01,,,0.25,Weather View 32 v70,2013-06-09 03:40:00,
2013-06-08 23:45:00,70.0,62.8,30.17,NW,315,0.0,0.0,78,0.01,,,0.25,Weather View 32 v70,2013-06-09 03:45:00,
2013-06-08 23:50:00,70.0,63.5,30.17,NW,315,0.0,0.0,80,0.01,,,0.25,Weather View 32 v70,2013-06-09 03:50:00,
2013-06-08 23:55:00,70.0,62.8,30.17,NW,315,0.0,0.0,78,0.00,,,0.25,Weather View 32 v70,2013-06-09 03:55:00,